createdAt,value
2019-04-11T00:00:50.469Z,29.85
2019-04-11T00:03:53.440Z,37.17
2019-04-11T00:06:56.025Z,37.33
2019-04-11T00:09:57.445Z,31.73
2019-04-11T00:12:59.152Z,28.02
2019-04-11T00:16:01.297Z,24.65
2019-04-11T00:19:03.113Z,27.65
2019-04-11T00:22:05.577Z,27.95
2019-04-11T00:25:07.359Z,31.02
2019-04-11T00:28:09.750Z,29.82
2019-04-11T00:31:12.483Z,22.93
2019-04-11T00:34:15.000Z,28.77
2019-04-11T00:37:17.072Z,27.95
2019-04-11T00:40:18.824Z,25.97
2019-04-11T00:43:30.858Z,24.40
2019-04-11T00:46:24.833Z,25.32
2019-04-11T00:49:26.333Z,21.87
2019-04-11T00:52:27.622Z,26.27
2019-04-11T00:55:29.385Z,26.52
2019-04-11T00:58:31.877Z,26.95
2019-04-11T01:01:33.742Z,29.02
2019-04-11T01:04:35.001Z,26.77
2019-04-11T01:07:36.476Z,25.90
2019-04-11T01:10:37.759Z,26.77
2019-04-11T01:13:47.338Z,27.98
2019-04-11T01:16:45.096Z,26.65
2019-04-11T01:19:46.884Z,26.48
2019-04-11T01:22:48.696Z,31.10
2019-04-11T01:25:51.372Z,27.77
2019-04-11T01:28:53.572Z,27.50
2019-04-11T01:31:57.976Z,34.33
2019-04-11T01:34:59.521Z,27.80
2019-04-11T01:38:00.971Z,34.73
2019-04-11T01:41:02.955Z,31.70
2019-04-11T01:44:07.107Z,41.33
2019-04-11T01:47:09.470Z,36.28
2019-04-11T01:50:12.567Z,33.60
2019-04-11T01:53:15.119Z,33.05
2019-04-11T01:56:16.900Z,33.67
2019-04-11T01:59:21.593Z,30.90
2019-04-11T02:02:24.856Z,33.13
2019-04-11T02:05:29.263Z,28.90
2019-04-11T02:08:31.299Z,29.60
2019-04-11T02:11:33.869Z,27.25
2019-04-11T02:14:35.496Z,29.20
2019-04-11T02:17:37.708Z,27.70
2019-04-11T02:20:39.049Z,33.80
2019-04-11T02:23:43.409Z,37.70
2019-04-11T02:26:47.252Z,32.05
2019-04-11T02:29:49.035Z,32.23
2019-04-11T02:32:51.830Z,35.10
2019-04-11T02:35:54.245Z,35.90
2019-04-11T02:38:58.936Z,32.28
2019-04-11T02:41:59.225Z,36.77
2019-04-11T02:45:19.633Z,31.52
2019-04-11T02:48:09.334Z,40.85
2019-04-11T02:51:12.256Z,39.95
2019-04-11T02:54:13.702Z,35.85
2019-04-11T02:57:16.407Z,28.83
2019-04-11T03:00:20.359Z,28.20
2019-04-11T03:03:23.032Z,29.27
2019-04-11T03:06:25.856Z,23.73
2019-04-11T03:09:28.977Z,28.20
2019-04-11T03:12:31.819Z,22.25
2019-04-11T03:15:53.907Z,26.93
2019-04-11T03:18:54.692Z,25.17
2019-04-11T03:21:43.618Z,24.52
2019-04-11T03:24:44.178Z,24.90
2019-04-11T03:27:47.390Z,23.52
2019-04-11T03:31:24.365Z,25.43
2019-04-11T03:40:20.415Z,25.15
2019-04-11T03:43:16.439Z,25.37
2019-04-11T03:46:25.044Z,30.50
2019-04-11T03:49:20.729Z,26.23
2019-04-11T03:52:12.378Z,25.43
2019-04-11T03:55:15.082Z,27.48
2019-04-11T03:58:17.417Z,24.32
2019-04-11T04:01:21.207Z,22.93
2019-04-11T04:04:23.733Z,23.52
2019-04-11T04:07:25.426Z,23.38
2019-04-11T04:10:27.790Z,23.70
2019-04-11T04:13:31.618Z,20.25
2019-04-11T04:16:48.279Z,21.90
2019-04-11T04:19:56.380Z,20.60
2019-04-11T04:23:00.882Z,21.80
2019-04-11T04:26:03.236Z,25.20
2019-04-11T04:29:05.331Z,20.88
2019-04-11T04:32:08.241Z,24.82
2019-04-11T04:35:14.451Z,25.40
2019-04-11T04:38:13.751Z,21.87
2019-04-11T04:41:28.202Z,23.73
2019-04-11T04:44:22.203Z,22.50
2019-04-11T04:47:32.755Z,20.90
2019-04-11T04:50:26.821Z,28.20
2019-04-11T04:53:31.001Z,22.70
2019-04-11T04:56:34.802Z,25.82
2019-04-11T04:59:38.417Z,22.05
2019-04-11T05:02:39.904Z,21.05
2019-04-11T05:05:42.481Z,26.10
2019-04-11T05:08:45.124Z,20.55
2019-04-11T05:11:46.748Z,24.47
2019-04-11T05:14:49.683Z,24.70
2019-04-11T05:17:51.327Z,28.65
2019-04-11T05:20:52.915Z,31.23
2019-04-11T05:23:55.150Z,33.75
2019-04-11T05:26:57.863Z,42.58
2019-04-11T05:29:59.370Z,34.70
2019-04-11T05:33:01.732Z,40.73
2019-04-11T05:36:04.042Z,34.48
2019-04-11T05:39:06.720Z,27.60
2019-04-11T05:42:09.099Z,29.20
2019-04-11T05:45:15.913Z,29.45
2019-04-11T05:48:25.958Z,32.30
2019-04-11T05:51:36.865Z,36.35
2019-04-11T05:54:41.805Z,32.17
2019-04-11T05:57:44.938Z,30.62
2019-04-11T06:00:51.485Z,28.83
2019-04-11T06:03:55.487Z,25.77
2019-04-11T06:07:07.933Z,20.70
2019-04-11T06:10:14.359Z,21.57
2019-04-11T06:13:26.920Z,22.40
2019-04-11T06:16:37.884Z,25.40
2019-04-11T06:19:42.147Z,23.70
2019-04-11T06:22:54.314Z,19.35
2019-04-11T06:26:00.885Z,22.10
2019-04-11T06:29:15.449Z,25.12
2019-04-11T06:32:19.381Z,22.37
2019-04-11T06:35:28.802Z,23.15
2019-04-11T06:38:44.919Z,21.82
2019-04-11T06:41:48.623Z,22.62
2019-04-11T06:44:52.204Z,21.60
2019-04-11T06:47:59.034Z,20.68
2019-04-11T06:51:08.693Z,21.25
2019-04-11T06:54:28.701Z,22.87
2019-04-11T06:57:34.349Z,24.02
2019-04-11T07:00:37.202Z,28.47
2019-04-11T07:03:40.641Z,27.27
2019-04-11T07:06:44.050Z,24.40
2019-04-11T07:09:47.602Z,23.40
2019-04-11T07:12:52.971Z,24.00
2019-04-11T07:15:54.832Z,27.58
2019-04-11T07:19:04.909Z,27.15
2019-04-11T07:22:25.215Z,27.35
2019-04-11T07:25:28.969Z,34.67
2019-04-11T07:28:41.774Z,38.92
2019-04-11T07:31:48.320Z,28.32
2019-04-11T07:35:09.187Z,32.00
2019-04-11T07:38:13.954Z,28.20
2019-04-11T07:41:34.421Z,28.75
2019-04-11T07:44:40.809Z,30.37
2019-04-11T07:47:48.425Z,32.85
2019-04-11T07:50:51.031Z,31.87
2019-04-11T07:53:54.639Z,27.25
2019-04-11T07:56:58.692Z,25.02
2019-04-11T08:00:06.016Z,24.87
2019-04-11T08:03:27.944Z,24.57
2019-04-11T08:09:50.708Z,36.17
2019-04-11T08:12:54.085Z,36.15
2019-04-11T08:15:57.989Z,54.77
2019-04-11T08:19:04.049Z,39.25
2019-04-11T08:22:25.138Z,33.80
2019-04-11T08:25:31.467Z,32.30
2019-04-11T08:28:34.401Z,30.80
2019-04-11T08:31:56.254Z,28.12
2019-04-11T08:35:03.957Z,44.13
2019-04-11T08:38:12.059Z,38.67
2019-04-11T08:41:27.519Z,35.75
2019-04-11T08:44:30.073Z,36.58
2019-04-11T08:47:46.377Z,34.43
2019-04-11T08:50:39.117Z,31.30
2019-04-11T08:53:42.818Z,40.60
2019-04-11T08:56:45.370Z,34.50
2019-04-11T08:59:54.597Z,39.27
2019-04-11T09:03:10.267Z,28.15
2019-04-11T09:06:14.683Z,40.12
2019-04-11T09:09:18.798Z,30.77
2019-04-11T09:12:20.587Z,38.30
2019-04-11T09:15:41.233Z,46.50
2019-04-11T09:18:44.099Z,32.63
2019-04-11T09:22:04.726Z,45.28
2019-04-11T09:25:11.188Z,36.45
2019-04-11T09:28:15.382Z,34.03
2019-04-11T09:31:34.136Z,40.33
2019-04-11T09:34:40.113Z,31.15
2019-04-11T09:37:44.247Z,29.85
2019-04-11T09:40:50.116Z,29.45
2019-04-11T09:43:53.917Z,35.90
2019-04-11T09:47:13.632Z,41.40
2019-04-11T09:50:28.884Z,41.15
2019-04-11T09:53:30.730Z,49.13
2019-04-11T09:56:51.654Z,46.18
2019-04-11T09:59:55.964Z,54.30
2019-04-11T10:03:02.291Z,44.90
2019-04-11T10:06:21.620Z,30.82
2019-04-11T10:09:26.119Z,32.20
2019-04-11T10:12:40.444Z,33.98
2019-04-11T10:15:45.202Z,31.48
2019-04-11T10:19:03.477Z,45.63
2019-04-11T10:22:09.478Z,47.27
2019-04-11T10:25:19.092Z,35.65
2019-04-11T10:28:41.771Z,24.32
2019-04-11T10:31:47.765Z,33.30
2019-04-11T10:35:08.176Z,40.17
2019-04-11T10:38:12.017Z,36.15
2019-04-11T10:41:34.189Z,37.95
2019-04-11T10:44:54.302Z,37.50
2019-04-11T10:47:55.992Z,34.15
2019-04-11T10:51:00.397Z,31.93
2019-04-11T10:54:05.122Z,32.60
2019-04-11T10:57:10.029Z,33.55
2019-04-11T11:00:16.422Z,30.43
2019-04-11T11:03:22.869Z,30.10
2019-04-11T11:06:27.387Z,29.20
2019-04-11T11:09:37.120Z,24.07
2019-04-11T11:12:59.189Z,31.17
2019-04-11T11:16:00.710Z,29.75
2019-04-11T11:19:31.201Z,29.05
2019-04-11T11:22:20.921Z,26.00
2019-04-11T11:25:48.383Z,29.72
2019-04-11T11:29:07.143Z,29.75
2019-04-11T11:32:09.259Z,33.65
2019-04-11T11:35:15.226Z,29.82
2019-04-11T11:38:24.406Z,33.05
2019-04-11T11:41:44.787Z,28.60
2019-04-11T11:48:01.507Z,34.13
2019-04-11T11:51:05.458Z,31.70
2019-04-11T11:54:13.715Z,37.75
2019-04-11T11:57:16.882Z,35.48
2019-04-11T12:00:21.119Z,30.60
2019-04-11T12:03:44.520Z,27.55
2019-04-11T12:06:48.190Z,25.55
2019-04-11T12:10:09.089Z,24.40
2019-04-11T12:13:28.502Z,25.43
2019-04-11T12:16:33.032Z,25.00
2019-04-11T12:19:48.822Z,25.40
2019-04-11T12:22:42.740Z,27.42
2019-04-11T12:25:47.570Z,24.15
2019-04-11T12:28:52.066Z,22.77
2019-04-11T12:31:55.755Z,23.90
2019-04-11T12:35:14.006Z,24.27
2019-04-11T12:38:35.654Z,24.72
2019-04-11T12:41:55.332Z,24.52
2019-04-11T12:45:06.439Z,35.47
2019-04-11T12:48:07.775Z,27.17
2019-04-11T12:51:17.175Z,34.13
2019-04-11T12:54:20.414Z,24.25
2019-04-11T12:57:40.436Z,23.55
2019-04-11T13:01:00.634Z,27.95
2019-04-11T13:04:07.242Z,30.30
2019-04-11T13:07:10.413Z,25.32
2019-04-11T13:10:12.431Z,22.93
2019-04-11T13:13:27.875Z,31.07
2019-04-11T13:16:29.745Z,23.42
2019-04-11T13:19:36.278Z,24.82
2019-04-11T13:22:37.777Z,28.25
2019-04-11T13:25:41.100Z,23.65
2019-04-11T13:28:47.038Z,24.00
2019-04-11T13:31:53.278Z,25.32
2019-04-11T13:35:02.554Z,23.90
2019-04-11T13:38:11.723Z,29.40
2019-04-11T13:41:23.861Z,23.50
2019-04-11T13:44:25.244Z,28.42
2019-04-11T13:47:40.622Z,26.15
2019-04-11T13:50:41.890Z,25.62
2019-04-11T13:54:01.650Z,28.65
2019-04-11T13:57:21.557Z,32.20
2019-04-11T14:00:31.713Z,21.20
2019-04-11T14:03:51.610Z,25.43
2019-04-11T14:06:52.962Z,25.68
2019-04-11T14:10:01.346Z,21.95
2019-04-11T14:13:05.938Z,29.07
2019-04-11T14:16:24.433Z,35.48
2019-04-11T14:19:27.601Z,32.30
2019-04-11T14:22:47.512Z,27.27
2019-04-11T14:25:50.678Z,23.00
2019-04-11T14:28:53.841Z,25.80
2019-04-11T14:31:59.889Z,22.27
2019-04-11T14:35:20.193Z,22.35
2019-04-11T14:38:23.370Z,24.98
2019-04-11T14:41:27.106Z,27.95
2019-04-11T14:44:30.619Z,32.23
2019-04-11T14:47:51.165Z,25.68
2019-04-11T14:54:12.141Z,29.23
2019-04-11T14:57:23.294Z,29.10
2019-04-11T15:00:32.346Z,26.85
2019-04-11T15:03:53.527Z,22.58
2019-04-11T15:06:56.883Z,23.77
2019-04-11T15:10:00.115Z,22.00
2019-04-11T15:13:02.857Z,25.17
2019-04-11T15:16:22.622Z,23.52
2019-04-11T15:19:24.013Z,22.52
2019-04-11T15:22:28.091Z,24.37
2019-04-11T15:25:37.857Z,23.18
2019-04-11T15:32:04.941Z,31.55
2019-04-11T15:35:06.769Z,33.50
2019-04-11T15:38:26.680Z,29.98
2019-04-11T15:41:32.466Z,32.78
2019-04-11T15:44:36.347Z,28.25
2019-04-11T15:47:39.595Z,25.85
2019-04-11T15:51:06.480Z,29.37
2019-04-11T15:54:14.562Z,31.80
2019-04-11T15:57:17.794Z,30.80
2019-04-11T16:00:21.014Z,34.75
2019-04-11T16:03:24.516Z,30.23
2019-04-11T16:06:35.174Z,30.90
2019-04-11T16:09:37.331Z,55.48
2019-04-11T16:12:41.369Z,40.43
2019-04-11T16:15:44.562Z,40.55
2019-04-11T16:18:47.935Z,41.42
2019-04-11T16:22:00.213Z,40.43
2019-04-11T16:25:06.803Z,47.93
2019-04-11T16:28:21.928Z,44.48
2019-04-11T16:31:25.177Z,44.13
2019-04-11T16:34:28.662Z,48.65
2019-04-11T16:37:30.194Z,40.90
2019-04-11T16:40:36.371Z,44.42
2019-04-11T16:43:39.549Z,84.00
2019-04-11T16:46:59.303Z,65.22
2019-04-11T16:50:02.953Z,52.43
2019-04-11T16:53:04.438Z,59.10
2019-04-11T16:56:05.818Z,77.17
2019-04-11T16:59:07.790Z,107.52
2019-04-11T17:02:09.025Z,105.50
2019-04-11T17:05:10.491Z,147.82
2019-04-11T17:08:13.676Z,93.62
2019-04-11T17:11:18.974Z,93.60
2019-04-11T17:14:27.896Z,205.45
2019-04-11T17:17:26.261Z,75.12
2019-04-11T17:20:28.598Z,82.12
2019-04-11T17:23:30.070Z,83.10
2019-04-11T17:26:31.373Z,62.67
2019-04-11T17:29:32.687Z,52.43
2019-04-11T17:32:34.457Z,54.42
2019-04-11T17:35:38.107Z,59.60
2019-04-11T17:38:39.676Z,65.08
2019-04-11T17:41:43.814Z,60.40
2019-04-11T17:44:45.641Z,56.68
2019-04-11T17:47:47.197Z,67.00
2019-04-11T17:50:48.836Z,68.15
2019-04-11T17:53:50.208Z,69.10
2019-04-11T17:56:54.662Z,79.58
2019-04-11T17:59:56.732Z,72.75
2019-04-11T18:02:58.736Z,64.07
2019-04-11T18:06:00.407Z,71.22
2019-04-11T18:09:01.991Z,71.20
2019-04-11T18:12:03.305Z,70.78
2019-04-11T18:15:07.509Z,56.50
2019-04-11T18:18:09.327Z,62.67
2019-04-11T18:21:11.294Z,63.75
2019-04-11T18:24:12.684Z,77.03
2019-04-11T18:27:14.123Z,66.62
2019-04-11T18:30:16.172Z,66.57
2019-04-11T18:33:18.604Z,65.28
2019-04-11T18:36:20.930Z,63.17
2019-04-11T18:39:22.639Z,62.25
2019-04-11T18:42:24.048Z,65.80
2019-04-11T18:45:25.795Z,62.83
2019-04-11T18:48:27.209Z,92.92
2019-04-11T18:51:30.576Z,82.97
2019-04-11T18:54:34.294Z,72.35
2019-04-11T18:57:36.610Z,70.15
2019-04-11T19:00:39.043Z,73.00
2019-04-11T19:03:48.924Z,77.37
2019-04-11T19:06:52.985Z,84.60
2019-04-11T19:09:55.882Z,89.85
2019-04-11T19:12:57.418Z,87.12
2019-04-11T19:15:59.356Z,86.25
2019-04-11T19:19:01.954Z,74.92
2019-04-11T19:22:04.544Z,97.57
2019-04-11T19:25:11.811Z,133.95
2019-04-11T19:28:11.803Z,94.00
2019-04-11T19:31:13.211Z,79.40
2019-04-11T19:34:14.925Z,72.37
2019-04-11T19:37:16.455Z,77.60
2019-04-11T19:40:18.102Z,86.92
2019-04-11T19:43:20.078Z,98.22
2019-04-11T19:46:21.911Z,108.50
2019-04-11T19:49:28.704Z,115.30
2019-04-11T19:52:32.602Z,107.55
2019-04-11T19:55:48.189Z,97.82
2019-04-11T19:58:51.657Z,90.10
2019-04-11T20:01:54.482Z,84.03
2019-04-11T20:04:57.923Z,79.72
2019-04-11T20:08:00.758Z,108.60
2019-04-11T20:11:02.946Z,102.12
2019-04-11T20:14:04.526Z,70.95
2019-04-11T20:17:09.238Z,64.17
2019-04-11T20:20:11.241Z,51.25
2019-04-11T20:23:13.533Z,35.75
2019-04-11T20:26:19.996Z,34.03
2019-04-11T20:29:21.393Z,38.15
2019-04-11T20:32:24.213Z,50.52
2019-04-11T20:35:29.238Z,56.45
2019-04-11T20:38:29.087Z,55.88
2019-04-11T20:41:30.652Z,79.27
2019-04-11T20:44:31.939Z,64.53
2019-04-11T20:47:33.816Z,48.63
2019-04-11T20:50:35.098Z,43.63
2019-04-11T20:53:37.684Z,35.88
2019-04-11T20:56:40.459Z,39.40
2019-04-11T20:59:42.858Z,52.25
2019-04-11T21:02:44.158Z,34.00
2019-04-11T21:05:45.812Z,35.10
2019-04-11T21:08:47.846Z,31.97
2019-04-11T21:11:49.368Z,42.00
2019-04-11T21:14:50.635Z,34.83
2019-04-11T21:17:53.645Z,33.53
2019-04-11T21:20:55.901Z,32.67
2019-04-11T21:24:00.409Z,33.60
2019-04-11T21:27:01.441Z,30.95
2019-04-11T21:30:05.017Z,28.02
2019-04-11T21:33:06.398Z,25.15
2019-04-11T21:36:08.041Z,37.15
2019-04-11T21:39:10.494Z,39.53
2019-04-11T21:42:11.965Z,25.37
2019-04-11T21:45:13.183Z,30.20
2019-04-11T21:48:14.482Z,30.62
2019-04-11T21:51:16.958Z,24.72
2019-04-11T21:54:18.229Z,28.47
2019-04-11T21:57:19.603Z,29.18
2019-04-11T22:00:26.564Z,22.73
2019-04-11T22:03:28.098Z,27.77
2019-04-11T22:06:31.379Z,22.70
2019-04-11T22:09:35.525Z,20.77
2019-04-11T22:12:39.785Z,29.40
2019-04-11T22:15:42.538Z,22.35
2019-04-11T22:18:44.334Z,22.15
2019-04-11T22:21:46.452Z,23.32
2019-04-11T22:24:47.733Z,19.73
2019-04-11T22:27:51.048Z,20.02
2019-04-11T22:30:55.190Z,19.60
2019-04-11T22:33:58.641Z,19.62
2019-04-11T22:37:00.607Z,19.90
2019-04-11T22:40:05.698Z,22.45
2019-04-11T22:43:08.151Z,22.27
2019-04-11T22:46:20.130Z,23.45
2019-04-11T22:49:12.921Z,21.57
2019-04-11T22:52:14.198Z,27.58
2019-04-11T22:55:16.781Z,22.02
2019-04-11T22:58:18.086Z,22.73
2019-04-11T23:01:19.467Z,20.97
2019-04-11T23:04:20.746Z,20.23
2019-04-11T23:07:24.038Z,19.82
2019-04-11T23:10:26.462Z,16.60
2019-04-11T23:13:27.961Z,19.27
2019-04-11T23:16:29.236Z,23.57
2019-04-11T23:19:30.534Z,19.82
2019-04-11T23:22:31.994Z,21.15
2019-04-11T23:25:33.503Z,17.30
2019-04-11T23:28:34.807Z,19.60
2019-04-11T23:31:36.158Z,15.45
2019-04-11T23:34:38.358Z,16.55
2019-04-11T23:37:51.173Z,15.98
2019-04-11T23:40:52.710Z,15.98
2019-04-11T23:43:54.393Z,15.18
2019-04-11T23:46:55.673Z,14.98
2019-04-11T23:49:57.807Z,16.87
2019-04-11T23:52:59.077Z,16.60
2019-04-11T23:56:00.799Z,15.05
2019-04-11T23:59:02.713Z,17.07
